Time;durP1;ratioP1;P1;durP2;ratioP2;P2;SDS_P1;SDS_P2;PMS_P1;PMS_P2;Temp;Humidity;BMP_temperature;BMP_pressure;BME280_temperature;BME280_humidity;BME280_pressure;Samples;Min_cycle;Max_cycle;Signal;HPM_P1;HPM_P2
2022/12/31 00:02:01;;;;;;;;;1.00;1.00;;;;;15.54;77.02;100424.97;5075120;28;45480;-57
2022/12/31 00:04:27;;;;;;;;;2.00;0.75;;;;;15.47;77.28;100438.50;5074964;27;45469;-57
2022/12/31 00:06:52;;;;;;;;;3.50;1.00;;;;;15.53;77.25;100439.13;5075166;27;46406;-57
2022/12/31 00:09:17;;;;;;;;;1.00;1.00;;;;;15.55;77.48;100463.75;5059388;28;45391;-58
2022/12/31 00:11:43;;;;;;;;;2.75;1.25;;;;;15.61;77.42;100452.09;5059224;28;45340;-57
2022/12/31 00:14:08;;;;;;;;;2.75;0.75;;;;;15.55;77.06;100429.34;5058032;28;45332;-57
2022/12/31 00:16:37;;;;;;;;;1.50;0.00;;;;;15.53;77.26;100441.75;5059070;28;46345;-57
2022/12/31 00:19:04;;;;;;;;;2.25;0.75;;;;;15.58;77.42;100457.47;5059848;28;45487;-58
2022/12/31 00:21:32;;;;;;;;;2.00;0.00;;;;;15.54;77.38;100442.66;5062677;28;45357;-57
2022/12/31 00:23:57;;;;;;;;;2.00;1.00;;;;;15.57;77.45;100442.50;5062437;28;45461;-57
2022/12/31 00:26:25;;;;;;;;;2.50;1.50;;;;;15.60;76.73;100430.00;5062048;28;46202;-57
2022/12/31 00:28:52;;;;;;;;;2.00;1.50;;;;;15.62;77.02;100444.97;5062561;28;45311;-58
2022/12/31 00:31:21;;;;;;;;;2.00;1.00;;;;;15.65;77.02;100466.91;5063111;28;45340;-57
2022/12/31 00:33:46;;;;;;;;;1.25;1.25;;;;;15.70;76.97;100459.66;5062846;28;45457;-58
2022/12/31 00:36:15;;;;;;;;;2.75;1.50;;;;;15.69;76.84;100460.56;5062842;28;45374;-57
2022/12/31 00:38:42;;;;;;;;;3.00;0.25;;;;;15.72;76.70;100486.06;5062746;28;45238;-57
2022/12/31 00:41:09;;;;;;;;;1.00;1.00;;;;;15.74;76.62;100476.28;5062676;28;45295;-57
2022/12/31 00:43:34;;;;;;;;;3.00;1.50;;;;;15.74;76.47;100474.47;5078136;27;45544;-57
2022/12/31 00:46:01;;;;;;;;;2.25;1.00;;;;;15.71;76.61;100445.47;5062853;28;46021;-57
2022/12/31 00:48:27;;;;;;;;;3.00;1.00;;;;;15.77;76.57;100478.78;5062976;28;45311;-57
2022/12/31 00:50:54;;;;;;;;;4.25;1.50;;;;;15.76;76.57;100485.03;5062918;28;45478;-57
2022/12/31 00:53:21;;;;;;;;;0.50;0.50;;;;;15.73;76.99;100483.34;5062442;28;45247;-57
2022/12/31 00:55:46;;;;;;;;;1.00;0.75;;;;;15.76;76.37;100480.59;5078210;28;48437;-58
2022/12/31 00:58:12;;;;;;;;;0.00;0.00;;;;;15.80;76.31;100476.03;5062177;28;45164;-57
2022/12/31 01:00:38;;;;;;;;;0.67;0.67;;;;;15.75;76.93;100489.47;5062943;28;45581;-58
2022/12/31 01:03:03;;;;;;;;;2.67;0.00;;;;;15.81;76.46;100453.03;5062510;28;45380;-57
2022/12/31 01:05:30;;;;;;;;;0.00;0.00;;;;;15.85;76.40;100468.81;5062538;28;46188;-57
2022/12/31 01:07:55;;;;;;;;;1.33;0.00;;;;;15.86;76.08;100467.88;5061315;28;45347;-57
2022/12/31 01:13:05;;;;;;;;;1.00;1.00;;;;;15.89;76.13;100480.13;5062063;28;45299;-57
2022/12/31 01:15:36;;;;;;;;;1.00;0.00;;;;;15.90;76.33;100501.28;5062359;28;46067;-57
2022/12/31 01:18:03;;;;;;;;;1.33;0.00;;;;;15.89;76.39;100531.34;5062439;28;45154;-57
2022/12/31 01:20:29;;;;;;;;;2.00;0.33;;;;;15.94;76.43;100562.97;5062485;28;45494;-57
2022/12/31 01:22:55;;;;;;;;;1.00;0.00;;;;;15.96;76.69;100520.50;5077907;28;45331;-57
2022/12/31 01:25:20;;;;;;;;;1.67;1.00;;;;;15.94;76.15;100515.25;5062053;27;45490;-57
2022/12/31 01:27:46;;;;;;;;;0.00;0.00;;;;;15.93;76.34;100510.88;5062063;27;45348;-57
2022/12/31 01:30:11;;;;;;;;;1.00;1.00;;;;;15.95;76.32;100510.81;5077057;28;45321;-57
2022/12/31 01:32:37;;;;;;;;;1.25;0.00;;;;;15.93;76.18;100509.06;5077689;27;45371;-57
2022/12/31 01:35:02;;;;;;;;;4.00;1.00;;;;;15.88;76.39;100519.00;5062788;27;45395;-57
2022/12/31 01:37:28;;;;;;;;;0.00;0.00;;;;;15.91;76.48;100540.09;5061965;28;45329;-58
2022/12/31 01:39:53;;;;;;;;;1.00;1.00;;;;;15.97;76.39;100532.81;5062315;28;45247;-58
2022/12/31 01:42:19;;;;;;;;;1.50;0.00;;;;;15.92;76.00;100528.56;5077433;27;45232;-57
2022/12/31 01:44:53;;;;;;;;;0.00;0.00;;;;;15.96;76.04;100544.34;5061711;28;45939;-58
2022/12/31 01:47:35;;;;;;;;;1.50;1.00;;;;;15.94;76.39;100531.16;5061914;28;45376;-57
2022/12/31 01:50:10;;;;;;;;;0.00;0.00;;;;;15.97;76.21;100597.28;5060395;28;45348;-57
2022/12/31 01:52:40;;;;;;;;;0.75;0.75;;;;;15.92;76.08;100533.88;5060349;28;45412;-58
2022/12/31 01:55:31;;;;;;;;;1.50;1.50;;;;;16.01;75.76;100555.63;5077201;27;47093;-58
2022/12/31 01:58:03;;;;;;;;;0.00;0.00;;;;;16.07;75.81;100565.97;5061653;28;45385;-57
2022/12/31 02:00:30;;;;;;;;;0.25;0.00;;;;;16.09;75.56;100542.94;5061957;28;45396;-58
2022/12/31 02:02:55;;;;;;;;;0.75;0.75;;;;;16.09;75.61;100557.03;5061447;28;45583;-57
2022/12/31 02:05:33;;;;;;;;;0.00;0.00;;;;;16.17;75.10;100561.19;5061824;28;45411;-57
2022/12/31 02:07:59;;;;;;;;;0.33;0.00;;;;;16.23;75.27;100563.59;5077163;28;45283;-58
2022/12/31 02:10:24;;;;;;;;;0.00;0.00;;;;;16.17;75.31;100562.03;5061724;28;45169;-57
2022/12/31 02:12:51;;;;;;;;;0.00;0.00;;;;;16.24;75.07;100555.56;5061411;28;45236;-58
2022/12/31 02:15:23;;;;;;;;;1.00;1.00;;;;;16.28;74.79;100568.72;5061260;28;46399;-58
2022/12/31 02:18:05;;;;;;;;;2.00;1.33;;;;;16.28;75.00;100553.66;5076888;27;45236;-58
2022/12/31 02:20:48;;;;;;;;;0.00;0.00;;;;;16.36;74.44;100543.59;5061592;28;45318;-57
2022/12/31 02:23:23;;;;;;;;;1.00;0.00;;;;;16.31;74.98;100603.88;5061389;28;45348;-58
2022/12/31 02:25:48;;;;;;;;;0.33;0.00;;;;;16.35;74.94;100548.94;5061011;28;45234;-57
2022/12/31 02:28:38;;;;;;;;;1.00;0.00;;;;;16.42;74.42;100550.44;5060777;28;45370;-58
2022/12/31 02:31:22;;;;;;;;;0.67;0.67;;;;;16.45;74.66;100539.69;5061120;28;45459;-57
2022/12/31 02:34:08;;;;;;;;;0.00;0.00;;;;;16.47;74.33;100548.44;5076705;27;45391;-58
2022/12/31 02:36:40;;;;;;;;;0.00;0.00;;;;;16.51;74.05;100563.28;5076732;28;47985;-58
2022/12/31 02:39:07;;;;;;;;;1.00;1.00;;;;;16.51;73.92;100570.41;5059707;28;45360;-57
2022/12/31 02:41:52;;;;;;;;;0.33;0.33;;;;;16.52;73.77;100582.75;5075594;28;45316;-57
2022/12/31 02:44:24;;;;;;;;;0.33;0.33;;;;;16.52;73.82;100575.63;5060683;28;45506;-57
2022/12/31 02:47:07;;;;;;;;;1.00;1.00;;;;;16.51;74.10;100581.00;5060741;28;45573;-57
2022/12/31 02:49:41;;;;;;;;;2.00;1.00;;;;;16.54;74.11;100584.41;5060902;28;45426;-57
2022/12/31 02:52:16;;;;;;;;;3.00;1.00;;;;;16.61;73.63;100587.66;5060580;28;45263;-58
2022/12/31 02:54:50;;;;;;;;;0.00;0.00;;;;;16.58;74.00;100572.72;5060791;28;45231;-57
2022/12/31 02:57:25;;;;;;;;;0.00;0.00;;;;;16.65;73.42;100581.28;5060660;28;46258;-57
2022/12/31 03:02:46;;;;;;;;;2.50;1.00;;;;;16.68;73.23;100580.31;5060858;28;45236;-57
2022/12/31 03:05:14;;;;;;;;;2.00;1.00;;;;;16.67;73.27;100590.03;5060639;28;45238;-57
2022/12/31 03:07:41;;;;;;;;;0.00;0.00;;;;;16.66;73.05;100574.19;5060528;28;46283;-58
2022/12/31 03:10:07;;;;;;;;;0.00;0.00;;;;;16.64;73.12;100586.66;5076110;27;45359;-58
2022/12/31 03:12:46;;;;;;;;;2.00;0.00;;;;;16.62;72.75;100589.38;5060521;28;45318;-58
2022/12/31 03:15:23;;;;;;;;;1.00;1.00;;;;;16.62;73.26;100567.31;5060372;28;45547;-58
2022/12/31 03:17:58;;;;;;;;;2.50;1.50;;;;;16.57;73.69;100555.06;5075914;28;47310;-58
2022/12/31 03:23:28;;;;;;;;;2.75;1.75;;;;;16.66;72.73;100595.44;5047796;28;45319;-58
2022/12/31 03:25:55;;;;;;;;;3.25;0.75;;;;;16.64;72.54;100565.44;5060082;28;45293;-58
2022/12/31 03:28:24;;;;;;;;;2.00;2.00;;;;;16.64;72.50;100589.31;5059812;28;46496;-58
2022/12/31 03:30:53;;;;;;;;;1.75;1.00;;;;;16.62;72.67;100589.38;5075803;27;45372;-58
2022/12/31 03:33:20;;;;;;;;;1.00;1.00;;;;;16.62;72.53;100580.56;5060388;28;45399;-57
2022/12/31 03:35:46;;;;;;;;;0.50;0.00;;;;;16.64;72.39;100595.50;5060157;28;45280;-58
2022/12/31 03:38:12;;;;;;;;;0.00;0.00;;;;;16.59;72.25;100600.13;5075766;28;47357;-57
2022/12/31 03:40:47;;;;;;;;;1.00;1.00;;;;;16.62;72.15;100593.84;5060128;28;45469;-58
2022/12/31 03:43:13;;;;;;;;;2.25;2.25;;;;;16.54;72.68;100597.66;5059994;28;45339;-58
2022/12/31 03:45:38;;;;;;;;;1.25;1.00;;;;;16.63;71.78;100580.50;5059981;28;45474;-57
2022/12/31 03:48:05;;;;;;;;;1.50;1.00;;;;;16.63;72.09;100598.19;5059980;28;46399;-58
2022/12/31 03:50:31;;;;;;;;;1.25;1.25;;;;;16.61;71.73;100573.53;5059905;28;45259;-58
2022/12/31 03:52:57;;;;;;;;;2.00;0.50;;;;;16.60;72.24;100603.63;5075152;28;45271;-57
2022/12/31 03:55:23;;;;;;;;;1.00;1.00;;;;;16.56;72.21;100598.47;5075291;28;45519;-57
2022/12/31 03:57:49;;;;;;;;;1.50;1.50;;;;;16.59;71.81;100594.81;5059709;28;45461;-57
2022/12/31 04:00:18;;;;;;;;;1.00;1.00;;;;;16.55;71.84;100578.19;5075011;28;45392;-58
2022/12/31 04:02:44;;;;;;;;;2.75;1.25;;;;;16.57;72.06;100586.06;5059462;28;45283;-58
2022/12/31 04:05:10;;;;;;;;;4.50;2.50;;;;;16.54;72.01;100597.66;5059719;28;45245;-58
2022/12/31 04:07:35;;;;;;;;;2.00;2.00;;;;;16.61;71.01;100584.16;5059512;27;45280;-58
2022/12/31 04:10:03;;;;;;;;;2.75;1.75;;;;;16.63;71.00;100584.94;5059653;28;45236;-58
2022/12/31 04:12:28;;;;;;;;;1.50;1.00;;;;;16.62;71.21;100575.28;5060356;27;45228;-58
2022/12/31 04:14:53;;;;;;;;;4.25;1.00;;;;;16.58;71.56;100603.72;5059531;28;45560;-58
2022/12/31 04:17:19;;;;;;;;;2.00;2.00;;;;;16.56;71.36;100595.81;5059824;28;46087;-58
2022/12/31 04:19:44;;;;;;;;;0.50;0.50;;;;;16.57;71.42;100588.72;5075364;28;45334;-58
2022/12/31 04:22:10;;;;;;;;;2.00;2.00;;;;;16.50;71.44;100577.50;5059913;28;45311;-58
2022/12/31 04:24:35;;;;;;;;;3.00;2.00;;;;;16.56;70.94;100597.59;5059662;28;45303;-58
2022/12/31 04:27:00;;;;;;;;;2.25;1.00;;;;;16.53;71.46;100587.13;5059237;28;46254;-60
2022/12/31 04:29:26;;;;;;;;;2.00;2.00;;;;;16.53;71.34;100581.81;5071531;28;45355;-58
2022/12/31 04:31:51;;;;;;;;;2.75;1.25;;;;;16.49;71.29;100574.91;5051493;28;45428;-58
2022/12/31 04:34:17;;;;;;;;;3.75;0.00;;;;;16.44;71.76;100574.22;5059546;28;45515;-57
2022/12/31 04:36:42;;;;;;;;;3.75;1.50;;;;;16.49;71.26;100581.06;5058102;28;45475;-58
2022/12/31 04:39:08;;;;;;;;;1.50;1.50;;;;;16.49;70.86;100589.03;5075096;28;45408;-58
2022/12/31 04:41:33;;;;;;;;;3.25;2.00;;;;;16.52;70.51;100602.16;5059678;28;45491;-58
2022/12/31 04:43:58;;;;;;;;;2.00;2.00;;;;;16.47;70.92;100611.25;5059106;28;45510;-57
2022/12/31 04:46:26;;;;;;;;;1.50;1.00;;;;;16.43;70.75;100605.19;5059439;28;46144;-57
2022/12/31 04:48:52;;;;;;;;;3.25;2.00;;;;;16.48;70.54;100605.88;5059250;28;45174;-58
2022/12/31 04:51:18;;;;;;;;;1.50;1.00;;;;;16.44;71.31;100598.09;5057890;28;45327;-58
2022/12/31 04:53:44;;;;;;;;;4.00;2.25;;;;;16.41;70.87;100601.72;5057776;28;44888;-58
2022/12/31 04:56:10;;;;;;;;;2.75;2.00;;;;;16.42;70.93;100588.41;5059044;27;45420;-59
2022/12/31 04:58:37;;;;;;;;;2.00;1.75;;;;;16.34;71.43;100594.94;5057480;28;45324;-58
2022/12/31 05:01:03;;;;;;;;;3.00;2.00;;;;;16.32;71.12;100584.41;5059229;28;45533;-58
2022/12/31 05:03:28;;;;;;;;;3.00;2.00;;;;;16.44;70.86;100598.09;5041036;28;45328;-58
2022/12/31 05:05:59;;;;;;;;;3.00;2.00;;;;;16.42;71.22;100598.16;5062105;28;45997;-58
2022/12/31 05:08:24;;;;;;;;;3.00;3.00;;;;;16.45;70.55;100635.16;5062557;28;45303;-58
2022/12/31 05:10:50;;;;;;;;;2.00;2.00;;;;;16.47;70.57;100603.28;5062481;28;45244;-58
2022/12/31 05:13:15;;;;;;;;;2.00;1.00;;;;;16.47;70.48;100630.66;5062109;28;45451;-58
2022/12/31 05:15:41;;;;;;;;;4.00;1.00;;;;;16.48;70.31;100618.28;5062497;28;45378;-58
2022/12/31 05:18:07;;;;;;;;;1.00;1.00;;;;;16.47;70.44;100608.59;5062311;28;45387;-58
2022/12/31 05:20:33;;;;;;;;;3.00;1.25;;;;;16.47;70.47;100630.66;5062494;28;45373;-58
2022/12/31 05:22:59;;;;;;;;;1.00;1.00;;;;;16.47;70.34;100619.19;5062233;28;45177;-58
2022/12/31 05:25:25;;;;;;;;;0.00;0.00;;;;;16.42;70.51;100627.34;5061704;28;45375;-58
2022/12/31 05:27:50;;;;;;;;;4.75;2.25;;;;;16.45;70.19;100624.53;5061678;28;45220;-58
2022/12/31 05:30:17;;;;;;;;;2.25;2.00;;;;;16.46;70.31;100641.34;5062496;28;45304;-58
2022/12/31 05:32:43;;;;;;;;;2.00;2.00;;;;;16.47;70.20;100632.47;5062110;28;45513;-58
2022/12/31 05:35:09;;;;;;;;;2.00;2.00;;;;;16.45;70.31;100632.50;5061938;28;45405;-58
2022/12/31 05:37:34;;;;;;;;;1.00;1.00;;;;;16.50;70.03;100664.16;5061851;28;45455;-58
2022/12/31 05:40:00;;;;;;;;;4.50;2.00;;;;;16.47;69.91;100637.75;5062385;28;45263;-58
2022/12/31 05:42:26;;;;;;;;;5.75;2.00;;;;;16.48;69.77;100637.69;5061783;28;45292;-58
2022/12/31 05:44:51;;;;;;;;;2.00;1.00;;;;;16.45;70.22;100671.44;5061697;27;45451;-58
2022/12/31 05:47:16;;;;;;;;;2.00;2.00;;;;;16.47;69.94;100643.91;5062137;28;45326;-58
2022/12/31 05:49:42;;;;;;;;;3.50;3.50;;;;;16.49;69.70;100647.38;5062039;28;45410;-58
2022/12/31 05:52:07;;;;;;;;;3.50;2.75;;;;;16.50;69.83;100649.13;5061658;28;45386;-58
2022/12/31 05:54:32;;;;;;;;;4.00;3.00;;;;;16.41;70.40;100655.66;5061834;28;45439;-58
2022/12/31 05:56:58;;;;;;;;;2.75;2.75;;;;;16.39;70.31;100651.34;5061600;28;45267;-57
2022/12/31 05:59:23;;;;;;;;;3.50;2.50;;;;;16.36;70.30;100675.31;5061756;28;45378;-57
2022/12/31 06:01:49;;;;;;;;;2.00;2.00;;;;;16.44;69.89;100667.94;5077487;28;45434;-58
2022/12/31 06:04:15;;;;;;;;;5.25;2.25;;;;;16.44;69.62;100664.41;5061684;28;45212;-58
2022/12/31 06:06:40;;;;;;;;;4.00;2.25;;;;;16.39;69.92;100652.19;5077047;28;45205;-58
2022/12/31 06:09:06;;;;;;;;;2.25;2.00;;;;;16.42;69.90;100641.44;5077334;28;45274;-58
2022/12/31 06:11:31;;;;;;;;;1.00;1.00;;;;;16.46;69.79;100641.34;5076740;27;45821;-58
2022/12/31 06:13:59;;;;;;;;;3.00;1.25;;;;;16.41;69.94;100652.13;5061352;28;46468;-57
2022/12/31 06:16:26;;;;;;;;;2.00;2.00;;;;;16.39;70.16;100651.34;5076982;28;46396;-58
2022/12/31 06:18:51;;;;;;;;;3.25;3.25;;;;;16.42;70.18;100661.81;5061420;28;45322;-58
2022/12/31 06:21:18;;;;;;;;;2.00;1.00;;;;;16.40;69.66;100663.66;5061153;28;45335;-57
2022/12/31 06:23:43;;;;;;;;;4.50;2.50;;;;;16.45;69.71;100666.97;5076987;27;47227;-58
2022/12/31 06:26:09;;;;;;;;;2.75;1.50;;;;;16.39;69.61;100670.75;5060940;28;45406;-58
2022/12/31 06:28:34;;;;;;;;;2.25;2.00;;;;;16.42;69.80;100673.25;5059923;27;45269;-58
2022/12/31 06:31:07;;;;;;;;;2.50;2.50;;;;;16.46;69.56;100679.31;5061148;28;45430;-58
2022/12/31 06:33:34;;;;;;;;;2.50;2.00;;;;;16.42;70.08;100680.38;5061215;28;46347;-58
2022/12/31 06:36:02;;;;;;;;;2.00;2.00;;;;;16.50;69.24;100693.31;5061051;28;45232;-58
2022/12/31 06:38:29;;;;;;;;;2.75;2.75;;;;;16.47;69.50;100681.06;5076773;27;45316;-58
2022/12/31 06:40:55;;;;;;;;;3.25;3.00;;;;;16.42;69.57;100690.97;5060874;27;45449;-59
2022/12/31 06:43:21;;;;;;;;;2.00;1.50;;;;;16.41;70.06;100682.19;5076226;28;45244;-58
2022/12/31 06:45:47;;;;;;;;;2.25;2.00;;;;;16.42;69.67;100675.06;5076632;27;45343;-58
2022/12/31 06:48:13;;;;;;;;;1.75;1.75;;;;;16.43;69.50;100679.47;5076800;27;45356;-58
2022/12/31 06:50:39;;;;;;;;;4.75;3.00;;;;;16.41;70.14;100695.44;5076390;27;45217;-58
2022/12/31 06:53:05;;;;;;;;;3.50;2.00;;;;;16.41;70.19;100686.59;5076110;27;45264;-57
2022/12/31 06:55:31;;;;;;;;;2.75;2.25;;;;;16.51;69.36;100681.78;5060864;28;45311;-58
2022/12/31 06:57:57;;;;;;;;;2.00;1.75;;;;;16.47;69.69;100694.31;5076121;27;45974;-58
2022/12/31 07:00:23;;;;;;;;;4.75;3.00;;;;;16.42;69.88;100693.63;5076413;28;45173;-57
2022/12/31 07:03:25;;;;;;;;;4.00;3.50;;;;;16.42;70.54;100702.44;5060772;28;45229;-58
2022/12/31 07:06:16;;;;;;;;;3.00;3.00;;;;;16.44;70.04;100718.31;5060752;28;45289;-58
2022/12/31 07:08:41;;;;;;;;;2.75;1.50;;;;;16.45;69.38;100725.31;5060880;28;45459;-58
2022/12/31 07:11:56;;;;;;;;;0.75;0.75;;;;;16.49;69.01;100716.34;5075882;28;45269;-58
2022/12/31 07:14:27;;;;;;;;;1.00;1.00;;;;;16.41;70.50;100719.31;5058898;28;46973;-58
2022/12/31 07:17:06;;;;;;;;;5.00;3.00;;;;;16.43;69.21;100700.66;5060599;28;45250;-57
2022/12/31 07:19:42;;;;;;;;;1.00;1.00;;;;;16.53;69.12;100717.94;5076108;28;45436;-58
2022/12/31 07:22:14;;;;;;;;;4.75;3.00;;;;;16.50;69.50;100699.50;5060561;28;45248;-58
2022/12/31 07:24:40;;;;;;;;;4.75;3.25;;;;;16.50;69.18;100707.47;5075722;27;45354;-58
2022/12/31 07:27:18;;;;;;;;;5.50;3.00;;;;;16.40;70.01;100700.78;5059587;27;45414;-58
2022/12/31 07:29:46;;;;;;;;;3.00;2.00;;;;;16.38;70.36;100729.16;5047600;28;45280;-59
2022/12/31 07:32:34;;;;;;;;;4.00;3.00;;;;;16.39;69.60;100704.38;5075742;28;45283;-58
2022/12/31 07:35:18;;;;;;;;;4.00;2.25;;;;;16.37;70.17;100728.28;5075798;27;45326;-58
2022/12/31 07:37:47;;;;;;;;;2.75;2.75;;;;;16.35;70.09;100729.25;5060216;28;45339;-58
2022/12/31 07:40:50;;;;;;;;;2.75;2.75;;;;;16.31;70.17;100730.31;5075733;28;45511;-57
2022/12/31 07:43:33;;;;;;;;;2.00;2.00;;;;;16.31;69.68;100731.16;5075252;28;45431;-58
2022/12/31 07:46:27;;;;;;;;;1.00;1.00;;;;;16.33;69.37;100760.31;5060014;27;45415;-58
2022/12/31 07:48:53;;;;;;;;;3.00;2.00;;;;;16.40;69.05;100759.13;5060061;28;45226;-59
2022/12/31 07:51:22;;;;;;;;;3.00;3.00;;;;;16.37;69.23;100764.56;5075608;27;45453;-58
2022/12/31 07:53:47;;;;;;;;;3.50;3.50;;;;;16.30;69.84;100774.53;5075487;27;45351;-58
2022/12/31 07:56:13;;;;;;;;;5.25;4.00;;;;;16.36;69.14;100782.25;5075348;27;46955;-58
2022/12/31 07:59:01;;;;;;;;;5.50;3.00;;;;;16.35;69.01;100792.91;5059618;28;45337;-58
2022/12/31 08:01:51;;;;;;;;;3.25;3.25;;;;;16.32;68.82;100787.72;5059797;27;45328;-58
2022/12/31 08:04:43;;;;;;;;;4.25;2.25;;;;;16.36;68.93;100784.03;5059931;28;45317;-58
2022/12/31 08:07:39;;;;;;;;;3.00;3.00;;;;;16.35;69.00;100791.13;5059909;28;46345;-58
2022/12/31 08:10:13;;;;;;;;;4.25;3.00;;;;;16.35;68.76;100792.91;5075508;28;45430;-58
2022/12/31 08:12:40;;;;;;;;;3.25;3.25;;;;;16.36;68.95;100784.03;5059531;28;45525;-59
2022/12/31 08:15:17;;;;;;;;;2.75;2.00;;;;;16.21;70.40;100788.13;5075317;27;45387;-58
2022/12/31 08:17:43;;;;;;;;;3.50;3.50;;;;;16.09;69.81;100773.53;5075148;27;45374;-58
2022/12/31 08:20:14;;;;;;;;;4.00;4.00;;;;;16.11;69.77;100770.81;5059774;28;45362;-59
2022/12/31 08:23:01;;;;;;;;;4.75;4.75;;;;;16.07;69.98;100767.41;5075443;28;45453;-58
2022/12/31 08:25:40;;;;;;;;;4.00;4.00;;;;;16.13;69.22;100769.84;5065830;28;45383;-58
2022/12/31 08:28:27;;;;;;;;;5.50;4.25;;;;;16.15;68.80;100765.38;5055121;28;46504;-58
2022/12/31 08:31:01;;;;;;;;;3.50;3.50;;;;;16.07;69.13;100785.97;5059391;28;45482;-58
2022/12/31 08:33:58;;;;;;;;;4.25;2.00;;;;;16.06;69.30;100774.53;5075287;28;45550;-58
2022/12/31 08:36:49;;;;;;;;;6.00;4.00;;;;;16.08;69.01;100783.25;5059619;28;45462;-58
2022/12/31 08:39:26;;;;;;;;;3.50;3.00;;;;;15.96;69.47;100786.38;5059908;28;45268;-58
2022/12/31 08:41:55;;;;;;;;;6.00;4.50;;;;;15.93;68.99;100782.03;5062677;28;45398;-57
2022/12/31 08:44:53;;;;;;;;;3.25;3.25;;;;;15.98;69.23;100773.91;5062930;28;45339;-57
2022/12/31 08:47:50;;;;;;;;;3.75;3.00;;;;;15.98;69.23;100781.88;5062708;28;45364;-59
2022/12/31 08:50:17;;;;;;;;;5.75;4.00;;;;;15.94;69.62;100782.91;5030626;28;45263;-59
2022/12/31 08:52:44;;;;;;;;;4.50;3.75;;;;;15.91;69.62;100797.13;5044306;28;46170;-58
2022/12/31 08:55:17;;;;;;;;;4.00;3.00;;;;;16.01;68.44;100797.69;5062829;28;45298;-58
2022/12/31 08:58:23;;;;;;;;;6.25;3.50;;;;;15.93;68.74;100808.53;5061060;27;45357;-58
2022/12/31 09:00:53;;;;;;;;;4.00;4.00;;;;;15.97;68.88;100811.94;5047578;28;45628;-57
2022/12/31 09:03:49;;;;;;;;;3.50;3.00;;;;;15.98;68.57;100826.06;5062610;28;45346;-57
2022/12/31 09:06:28;;;;;;;;;3.25;3.00;;;;;16.00;68.65;100824.22;5062631;28;45315;-58
2022/12/31 09:08:59;;;;;;;;;4.75;4.25;;;;;16.00;68.47;100819.78;5062663;28;45208;-58
2022/12/31 09:12:10;;;;;;;;;4.00;4.00;;;;;15.96;68.96;100819.94;5062198;28;45434;-58
2022/12/31 09:14:50;;;;;;;;;4.50;4.00;;;;;15.98;68.40;100820.78;5000114;28;45364;-58
2022/12/31 09:17:27;;;;;;;;;5.25;3.25;;;;;16.04;67.90;100831.16;4983916;28;45257;-58
2022/12/31 09:19:53;;;;;;;;;7.00;5.00;;;;;15.93;68.84;100819.13;5040244;28;45358;-59
2022/12/31 09:22:19;;;;;;;;;4.50;4.00;;;;;15.95;68.71;100810.25;5062130;28;46055;-57
2022/12/31 09:24:44;;;;;;;;;4.00;3.00;;;;;16.03;68.03;100824.13;5071298;28;45457;-58
2022/12/31 09:27:44;;;;;;;;;1.50;0.00;;;;;16.03;68.49;100838.22;5055708;28;45366;-58
2022/12/31 09:30:11;;;;;;;;;4.00;4.00;;;;;16.01;68.76;100810.94;5053698;28;45236;-58
2022/12/31 09:32:36;;;;;;;;;5.50;4.00;;;;;15.99;68.67;100833.13;5061826;28;45324;-58
2022/12/31 09:35:36;;;;;;;;;5.00;5.00;;;;;15.99;68.58;100831.31;5062245;28;45152;-58
2022/12/31 09:38:22;;;;;;;;;3.75;3.75;;;;;16.04;67.95;100821.41;5062323;28;45326;-58
2022/12/31 09:41:06;;;;;;;;;6.00;4.75;;;;;16.01;68.25;100832.13;5077775;27;45724;-58
2022/12/31 09:44:12;;;;;;;;;4.25;3.00;;;;;16.08;68.20;100836.28;5060423;28;46368;-58
2022/12/31 09:47:16;;;;;;;;;4.25;4.00;;;;;16.08;68.88;100830.13;5061776;27;45354;-58
2022/12/31 09:49:41;;;;;;;;;4.75;4.75;;;;;16.07;67.99;100833.69;5039738;28;45273;-58
2022/12/31 09:52:28;;;;;;;;;5.25;5.25;;;;;16.15;68.21;100823.69;5076981;28;45250;-58
2022/12/31 09:55:28;;;;;;;;;7.25;6.00;;;;;16.15;67.82;100844.00;5077297;28;45550;-58
2022/12/31 09:58:25;;;;;;;;;5.75;4.75;;;;;16.25;67.20;100838.34;5061536;28;45457;-58
2022/12/31 10:01:09;;;;;;;;;4.75;4.50;;;;;16.23;67.33;100845.47;5061858;28;45378;-57
2022/12/31 10:04:23;;;;;;;;;4.50;4.50;;;;;16.18;67.86;100836.81;5061630;28;45459;-57
2022/12/31 10:07:22;;;;;;;;;3.50;3.50;;;;;16.23;67.81;100837.50;5029630;28;46149;-58
2022/12/31 10:10:00;;;;;;;;;5.25;3.50;;;;;16.28;67.42;100828.56;5061672;28;45340;-58
2022/12/31 10:12:53;;;;;;;;;4.25;4.25;;;;;16.31;67.63;100831.06;5061530;28;45238;-58
2022/12/31 10:15:31;;;;;;;;;8.75;4.75;;;;;16.27;68.09;100824.16;5061532;28;45697;-58
2022/12/31 10:18:27;;;;;;;;;4.75;3.25;;;;;16.32;67.50;100840.75;5061442;28;45341;-57
2022/12/31 10:21:13;;;;;;;;;5.00;4.00;;;;;16.32;67.57;100814.25;5061237;28;45287;-58
2022/12/31 10:23:47;;;;;;;;;4.00;3.50;;;;;16.41;67.76;100817.44;5061453;28;45240;-57
2022/12/31 10:26:40;;;;;;;;;5.50;4.50;;;;;16.37;68.58;100817.59;5047454;28;45547;-57
2022/12/31 10:29:39;;;;;;;;;9.75;6.00;;;;;16.45;67.12;100817.31;5060757;28;46331;-57
2022/12/31 10:32:24;;;;;;;;;4.00;3.00;;;;;16.43;67.72;100790.84;5060934;28;45430;-57
2022/12/31 10:35:08;;;;;;;;;2.25;2.25;;;;;16.49;67.95;100795.91;5061346;28;45363;-57
2022/12/31 10:37:51;;;;;;;;;9.00;5.00;;;;;16.54;67.30;100814.28;5061111;28;45454;-57
2022/12/31 10:40:54;;;;;;;;;4.25;3.25;;;;;16.51;67.42;100809.97;5076655;28;48263;-57
2022/12/31 10:43:52;;;;;;;;;4.00;4.00;;;;;16.57;67.90;100798.28;5060670;28;45283;-57
2022/12/31 10:46:51;;;;;;;;;2.50;2.50;;;;;16.56;67.90;100805.38;5039873;28;45284;-57
2022/12/31 10:49:37;;;;;;;;;3.50;3.50;;;;;16.63;66.69;100798.03;5060938;28;45249;-57
2022/12/31 10:52:33;;;;;;;;;3.25;3.25;;;;;16.72;66.68;100796.81;5060395;28;46257;-57
2022/12/31 10:55:26;;;;;;;;;6.75;5.75;;;;;16.78;66.25;100795.69;5060752;28;45495;-57
2022/12/31 10:58:12;;;;;;;;;4.25;4.00;;;;;16.79;66.38;100779.75;5060697;28;45342;-57
2022/12/31 11:00:52;;;;;;;;;0.25;0.25;;;;;16.79;66.53;100777.09;5060894;28;45415;-57
2022/12/31 11:03:39;;;;;;;;;5.50;3.00;;;;;16.86;65.69;100783.84;5059546;28;45597;-57
2022/12/31 11:06:50;;;;;;;;;4.25;4.00;;;;;16.90;66.00;100781.94;5060610;28;45276;-58
2022/12/31 11:09:15;;;;;;;;;4.00;4.00;;;;;16.86;66.20;100767.94;5030096;28;45490;-58
2022/12/31 11:12:34;;;;;;;;;6.00;3.50;;;;;16.91;66.70;100791.69;5060330;28;45238;-58
2022/12/31 11:15:21;;;;;;;;;5.00;5.00;;;;;16.98;66.12;100792.28;4998500;28;47245;-58
2022/12/31 11:18:11;;;;;;;;;2.50;2.00;;;;;17.01;66.17;100789.53;4998249;28;45372;-58
2022/12/31 11:21:18;;;;;;;;;5.00;5.00;;;;;17.06;64.60;100785.75;5047881;28;45173;-58
2022/12/31 11:23:56;;;;;;;;;5.00;4.75;;;;;17.16;65.26;100778.28;5060374;28;45469;-58
2022/12/31 11:26:43;;;;;;;;;7.25;4.50;;;;;17.22;67.04;100774.50;5059731;28;46432;-58
2022/12/31 11:29:33;;;;;;;;;5.75;5.75;;;;;17.31;65.22;100760.00;5060120;28;45302;-58
2022/12/31 11:32:29;;;;;;;;;4.50;3.00;;;;;17.30;66.50;100743.16;5075868;28;45239;-58
2022/12/31 11:35:24;;;;;;;;;5.50;3.00;;;;;17.35;64.78;100765.09;5060416;28;45261;-58
2022/12/31 11:37:53;;;;;;;;;3.75;3.75;;;;;17.27;65.52;100761.91;5060141;28;45332;-59
2022/12/31 11:40:41;;;;;;;;;6.00;3.75;;;;;17.41;65.03;100768.41;5060170;28;45622;-58
2022/12/31 11:43:43;;;;;;;;;5.75;5.25;;;;;17.44;64.63;100761.19;5059773;28;45236;-58
2022/12/31 11:46:20;;;;;;;;;3.75;3.75;;;;;17.44;64.48;100763.84;5075707;28;45275;-58
2022/12/31 11:48:54;;;;;;;;;4.00;4.00;;;;;17.47;63.94;100758.41;5059805;28;46225;-58
2022/12/31 11:51:34;;;;;;;;;6.25;5.50;;;;;17.49;66.48;100766.31;5075091;28;45334;-58
2022/12/31 11:54:02;;;;;;;;;4.75;3.75;;;;;17.48;64.58;100773.41;5060201;28;45425;-57
2022/12/31 11:56:36;;;;;;;;;4.50;4.25;;;;;17.53;64.39;100805.97;5075522;28;46046;-58
2022/12/31 11:59:09;;;;;;;;;5.25;5.00;;;;;17.55;63.06;100753.59;5059666;28;45395;-58
2022/12/31 12:01:40;;;;;;;;;3.25;3.25;;;;;17.59;62.74;100762.31;5059731;28;45368;-58
2022/12/31 12:04:09;;;;;;;;;6.00;4.00;;;;;17.58;64.91;100765.03;5060062;28;45230;-58
2022/12/31 12:06:34;;;;;;;;;5.00;4.00;;;;;17.57;64.23;100744.72;5059720;28;45390;-58